sensor_id;sensor_type;location;lat;lon;timestamp;P1;durP1;ratioP1;P2;durP2;ratioP2
62861;SDS011;48953;53.110;5.592;2022-08-07T00:00:40;10.57;;;6.25;;
62861;SDS011;48953;53.110;5.592;2022-08-07T00:03:06;8.55;;;6.40;;
62861;SDS011;48953;53.110;5.592;2022-08-07T00:05:33;9.27;;;6.28;;
62861;SDS011;48953;53.110;5.592;2022-08-07T00:07:58;8.70;;;5.93;;
62861;SDS011;48953;53.110;5.592;2022-08-07T00:10:24;10.90;;;6.18;;
62861;SDS011;48953;53.110;5.592;2022-08-07T00:12:49;9.48;;;6.38;;
62861;SDS011;48953;53.110;5.592;2022-08-07T00:15:15;9.85;;;6.18;;
62861;SDS011;48953;53.110;5.592;2022-08-07T00:17:41;9.93;;;6.47;;
62861;SDS011;48953;53.110;5.592;2022-08-07T00:20:06;9.10;;;6.22;;
62861;SDS011;48953;53.110;5.592;2022-08-07T00:22:32;8.40;;;6.03;;
62861;SDS011;48953;53.110;5.592;2022-08-07T00:24:58;8.45;;;6.13;;
62861;SDS011;48953;53.110;5.592;2022-08-07T00:27:24;9.07;;;6.43;;
62861;SDS011;48953;53.110;5.592;2022-08-07T00:29:49;9.63;;;6.28;;
62861;SDS011;48953;53.110;5.592;2022-08-07T00:32:15;12.75;;;7.53;;
62861;SDS011;48953;53.110;5.592;2022-08-07T00:34:40;12.00;;;7.60;;
62861;SDS011;48953;53.110;5.592;2022-08-07T00:37:06;11.50;;;6.68;;
62861;SDS011;48953;53.110;5.592;2022-08-07T00:39:33;10.82;;;7.50;;
62861;SDS011;48953;53.110;5.592;2022-08-07T00:41:59;9.27;;;6.60;;
62861;SDS011;48953;53.110;5.592;2022-08-07T00:44:25;8.63;;;6.43;;
62861;SDS011;48953;53.110;5.592;2022-08-07T00:46:51;12.48;;;8.52;;
62861;SDS011;48953;53.110;5.592;2022-08-07T00:49:17;12.40;;;7.45;;
62861;SDS011;48953;53.110;5.592;2022-08-07T00:51:43;10.15;;;6.90;;
62861;SDS011;48953;53.110;5.592;2022-08-07T00:54:09;12.80;;;8.40;;
62861;SDS011;48953;53.110;5.592;2022-08-07T00:56:35;14.65;;;8.85;;
62861;SDS011;48953;53.110;5.592;2022-08-07T00:59:02;12.02;;;8.43;;
62861;SDS011;48953;53.110;5.592;2022-08-07T01:01:29;12.40;;;8.82;;
62861;SDS011;48953;53.110;5.592;2022-08-07T01:03:55;14.07;;;8.35;;
62861;SDS011;48953;53.110;5.592;2022-08-07T01:06:20;14.40;;;9.35;;
62861;SDS011;48953;53.110;5.592;2022-08-07T01:08:46;13.25;;;8.20;;
62861;SDS011;48953;53.110;5.592;2022-08-07T01:11:12;15.13;;;9.38;;
62861;SDS011;48953;53.110;5.592;2022-08-07T01:13:39;13.50;;;8.55;;
62861;SDS011;48953;53.110;5.592;2022-08-07T01:16:06;13.63;;;8.75;;
62861;SDS011;48953;53.110;5.592;2022-08-07T01:18:32;12.25;;;9.07;;
62861;SDS011;48953;53.110;5.592;2022-08-07T01:21:15;13.07;;;8.77;;
62861;SDS011;48953;53.110;5.592;2022-08-07T01:23:42;15.25;;;9.82;;
62861;SDS011;48953;53.110;5.592;2022-08-07T01:26:10;16.48;;;9.50;;
62861;SDS011;48953;53.110;5.592;2022-08-07T01:28:41;12.82;;;8.90;;
62861;SDS011;48953;53.110;5.592;2022-08-07T01:31:08;13.80;;;9.63;;
62861;SDS011;48953;53.110;5.592;2022-08-07T01:33:34;13.27;;;8.60;;
62861;SDS011;48953;53.110;5.592;2022-08-07T01:36:01;12.35;;;8.70;;
62861;SDS011;48953;53.110;5.592;2022-08-07T01:38:28;14.25;;;8.63;;
62861;SDS011;48953;53.110;5.592;2022-08-07T01:40:57;11.98;;;8.40;;
62861;SDS011;48953;53.110;5.592;2022-08-07T01:43:24;12.38;;;8.32;;
62861;SDS011;48953;53.110;5.592;2022-08-07T01:45:51;12.52;;;9.00;;
62861;SDS011;48953;53.110;5.592;2022-08-07T01:48:18;12.25;;;8.52;;
62861;SDS011;48953;53.110;5.592;2022-08-07T01:50:58;12.05;;;8.70;;
62861;SDS011;48953;53.110;5.592;2022-08-07T01:53:29;14.63;;;9.23;;
62861;SDS011;48953;53.110;5.592;2022-08-07T01:56:00;13.33;;;9.50;;
62861;SDS011;48953;53.110;5.592;2022-08-07T01:58:30;13.15;;;9.07;;
62861;SDS011;48953;53.110;5.592;2022-08-07T02:01:01;16.13;;;9.48;;
62861;SDS011;48953;53.110;5.592;2022-08-07T02:03:28;13.50;;;9.63;;
62861;SDS011;48953;53.110;5.592;2022-08-07T02:06:01;16.83;;;10.13;;
62861;SDS011;48953;53.110;5.592;2022-08-07T02:08:32;14.82;;;9.18;;
62861;SDS011;48953;53.110;5.592;2022-08-07T02:11:01;14.68;;;9.63;;
62861;SDS011;48953;53.110;5.592;2022-08-07T02:13:28;13.10;;;8.95;;
62861;SDS011;48953;53.110;5.592;2022-08-07T02:15:57;12.13;;;8.70;;
62861;SDS011;48953;53.110;5.592;2022-08-07T02:18:26;15.95;;;10.57;;
62861;SDS011;48953;53.110;5.592;2022-08-07T02:20:54;12.70;;;9.27;;
62861;SDS011;48953;53.110;5.592;2022-08-07T02:23:21;13.27;;;9.48;;
62861;SDS011;48953;53.110;5.592;2022-08-07T02:25:49;12.05;;;8.40;;
62861;SDS011;48953;53.110;5.592;2022-08-07T02:28:15;13.38;;;8.77;;
62861;SDS011;48953;53.110;5.592;2022-08-07T02:30:42;13.75;;;8.93;;
62861;SDS011;48953;53.110;5.592;2022-08-07T02:33:09;12.45;;;8.52;;
62861;SDS011;48953;53.110;5.592;2022-08-07T02:35:37;13.98;;;8.73;;
62861;SDS011;48953;53.110;5.592;2022-08-07T02:38:04;14.05;;;9.23;;
62861;SDS011;48953;53.110;5.592;2022-08-07T02:40:32;11.75;;;7.90;;
62861;SDS011;48953;53.110;5.592;2022-08-07T02:42:59;14.10;;;8.23;;
62861;SDS011;48953;53.110;5.592;2022-08-07T02:45:26;13.23;;;8.82;;
62861;SDS011;48953;53.110;5.592;2022-08-07T02:47:54;12.60;;;8.48;;
62861;SDS011;48953;53.110;5.592;2022-08-07T02:50:20;12.68;;;8.40;;
62861;SDS011;48953;53.110;5.592;2022-08-07T02:52:51;13.52;;;8.60;;
62861;SDS011;48953;53.110;5.592;2022-08-07T02:55:23;13.02;;;8.43;;
62861;SDS011;48953;53.110;5.592;2022-08-07T02:57:51;15.98;;;8.57;;
62861;SDS011;48953;53.110;5.592;2022-08-07T03:00:18;13.57;;;9.10;;
62861;SDS011;48953;53.110;5.592;2022-08-07T03:02:45;13.40;;;9.52;;
62861;SDS011;48953;53.110;5.592;2022-08-07T03:05:12;11.95;;;8.52;;
62861;SDS011;48953;53.110;5.592;2022-08-07T03:07:39;13.13;;;8.73;;
62861;SDS011;48953;53.110;5.592;2022-08-07T03:10:06;12.52;;;8.70;;
62861;SDS011;48953;53.110;5.592;2022-08-07T03:12:33;14.00;;;8.82;;
62861;SDS011;48953;53.110;5.592;2022-08-07T03:15:00;14.15;;;8.05;;
62861;SDS011;48953;53.110;5.592;2022-08-07T03:17:27;11.13;;;7.65;;
62861;SDS011;48953;53.110;5.592;2022-08-07T03:19:53;11.23;;;7.78;;
62861;SDS011;48953;53.110;5.592;2022-08-07T03:22:20;12.07;;;7.45;;
62861;SDS011;48953;53.110;5.592;2022-08-07T03:24:47;10.35;;;7.20;;
62861;SDS011;48953;53.110;5.592;2022-08-07T03:27:13;13.18;;;8.38;;
62861;SDS011;48953;53.110;5.592;2022-08-07T03:29:44;11.75;;;7.65;;
62861;SDS011;48953;53.110;5.592;2022-08-07T03:32:12;9.23;;;6.75;;
62861;SDS011;48953;53.110;5.592;2022-08-07T03:34:40;12.27;;;7.38;;
62861;SDS011;48953;53.110;5.592;2022-08-07T03:37:07;11.18;;;7.40;;
62861;SDS011;48953;53.110;5.592;2022-08-07T03:39:35;12.85;;;7.65;;
62861;SDS011;48953;53.110;5.592;2022-08-07T03:42:03;13.13;;;8.63;;
62861;SDS011;48953;53.110;5.592;2022-08-07T03:44:29;13.30;;;7.13;;
62861;SDS011;48953;53.110;5.592;2022-08-07T03:47:00;12.63;;;7.97;;
62861;SDS011;48953;53.110;5.592;2022-08-07T03:49:26;11.93;;;7.38;;
62861;SDS011;48953;53.110;5.592;2022-08-07T03:51:52;11.45;;;7.00;;
62861;SDS011;48953;53.110;5.592;2022-08-07T03:54:19;15.38;;;8.23;;
62861;SDS011;48953;53.110;5.592;2022-08-07T03:56:45;11.70;;;6.97;;
62861;SDS011;48953;53.110;5.592;2022-08-07T03:59:11;12.90;;;7.50;;
62861;SDS011;48953;53.110;5.592;2022-08-07T04:01:39;13.50;;;7.38;;
62861;SDS011;48953;53.110;5.592;2022-08-07T04:04:06;12.48;;;7.47;;
62861;SDS011;48953;53.110;5.592;2022-08-07T04:06:32;12.10;;;7.35;;
62861;SDS011;48953;53.110;5.592;2022-08-07T04:09:00;11.25;;;7.35;;
62861;SDS011;48953;53.110;5.592;2022-08-07T04:11:26;12.27;;;7.25;;
62861;SDS011;48953;53.110;5.592;2022-08-07T04:13:52;10.93;;;6.50;;
62861;SDS011;48953;53.110;5.592;2022-08-07T04:16:19;12.40;;;7.45;;
62861;SDS011;48953;53.110;5.592;2022-08-07T04:18:45;10.35;;;6.82;;
62861;SDS011;48953;53.110;5.592;2022-08-07T04:21:11;12.25;;;7.10;;
62861;SDS011;48953;53.110;5.592;2022-08-07T04:23:36;11.65;;;6.80;;
62861;SDS011;48953;53.110;5.592;2022-08-07T04:26:03;12.45;;;7.30;;
62861;SDS011;48953;53.110;5.592;2022-08-07T04:28:31;14.98;;;7.90;;
62861;SDS011;48953;53.110;5.592;2022-08-07T04:30:56;10.07;;;6.68;;
62861;SDS011;48953;53.110;5.592;2022-08-07T04:33:22;13.13;;;7.55;;
62861;SDS011;48953;53.110;5.592;2022-08-07T04:35:49;12.05;;;7.65;;
62861;SDS011;48953;53.110;5.592;2022-08-07T04:38:14;13.05;;;8.13;;
62861;SDS011;48953;53.110;5.592;2022-08-07T04:40:41;10.40;;;6.70;;
62861;SDS011;48953;53.110;5.592;2022-08-07T04:43:08;10.77;;;6.95;;
62861;SDS011;48953;53.110;5.592;2022-08-07T04:45:38;11.50;;;6.95;;
62861;SDS011;48953;53.110;5.592;2022-08-07T04:48:37;13.45;;;7.35;;
62861;SDS011;48953;53.110;5.592;2022-08-07T04:54:21;10.15;;;6.50;;
62861;SDS011;48953;53.110;5.592;2022-08-07T04:56:55;10.23;;;6.53;;
62861;SDS011;48953;53.110;5.592;2022-08-07T04:59:30;8.90;;;6.22;;
62861;SDS011;48953;53.110;5.592;2022-08-07T05:04:41;10.10;;;6.85;;
62861;SDS011;48953;53.110;5.592;2022-08-07T05:09:41;9.75;;;6.18;;
62861;SDS011;48953;53.110;5.592;2022-08-07T05:14:48;12.80;;;6.18;;
62861;SDS011;48953;53.110;5.592;2022-08-07T05:17:17;11.25;;;5.93;;
62861;SDS011;48953;53.110;5.592;2022-08-07T05:19:48;11.95;;;6.55;;
62861;SDS011;48953;53.110;5.592;2022-08-07T05:22:17;12.40;;;7.35;;
62861;SDS011;48953;53.110;5.592;2022-08-07T05:24:46;10.77;;;6.15;;
62861;SDS011;48953;53.110;5.592;2022-08-07T05:27:15;11.02;;;6.18;;
62861;SDS011;48953;53.110;5.592;2022-08-07T05:29:44;10.80;;;6.40;;
62861;SDS011;48953;53.110;5.592;2022-08-07T05:32:11;9.55;;;5.80;;
62861;SDS011;48953;53.110;5.592;2022-08-07T05:34:39;9.48;;;5.82;;
62861;SDS011;48953;53.110;5.592;2022-08-07T05:37:06;11.27;;;6.38;;
62861;SDS011;48953;53.110;5.592;2022-08-07T05:39:34;7.50;;;4.95;;
62861;SDS011;48953;53.110;5.592;2022-08-07T05:42:01;7.75;;;5.60;;
62861;SDS011;48953;53.110;5.592;2022-08-07T05:44:28;6.65;;;5.20;;
62861;SDS011;48953;53.110;5.592;2022-08-07T05:46:57;7.35;;;5.97;;
62861;SDS011;48953;53.110;5.592;2022-08-07T05:49:24;7.18;;;5.10;;
62861;SDS011;48953;53.110;5.592;2022-08-07T05:51:50;6.70;;;5.22;;
62861;SDS011;48953;53.110;5.592;2022-08-07T05:54:16;6.90;;;5.28;;
62861;SDS011;48953;53.110;5.592;2022-08-07T05:56:42;6.80;;;4.93;;
62861;SDS011;48953;53.110;5.592;2022-08-07T05:59:12;6.10;;;5.22;;
62861;SDS011;48953;53.110;5.592;2022-08-07T06:01:40;7.18;;;5.05;;
62861;SDS011;48953;53.110;5.592;2022-08-07T06:04:08;6.35;;;4.63;;
62861;SDS011;48953;53.110;5.592;2022-08-07T06:06:35;7.57;;;5.25;;
62861;SDS011;48953;53.110;5.592;2022-08-07T06:09:01;7.75;;;5.05;;
62861;SDS011;48953;53.110;5.592;2022-08-07T06:11:27;6.35;;;4.57;;
62861;SDS011;48953;53.110;5.592;2022-08-07T06:13:53;6.57;;;5.15;;
62861;SDS011;48953;53.110;5.592;2022-08-07T06:16:19;5.95;;;4.28;;
62861;SDS011;48953;53.110;5.592;2022-08-07T06:18:46;8.65;;;4.70;;
62861;SDS011;48953;53.110;5.592;2022-08-07T06:21:12;6.15;;;4.30;;
62861;SDS011;48953;53.110;5.592;2022-08-07T06:23:38;5.65;;;4.10;;
62861;SDS011;48953;53.110;5.592;2022-08-07T06:26:04;5.45;;;4.20;;
62861;SDS011;48953;53.110;5.592;2022-08-07T06:28:31;5.05;;;4.20;;
62861;SDS011;48953;53.110;5.592;2022-08-07T06:30:56;5.28;;;4.15;;
62861;SDS011;48953;53.110;5.592;2022-08-07T06:33:22;4.38;;;3.92;;
62861;SDS011;48953;53.110;5.592;2022-08-07T06:35:49;5.28;;;3.95;;
62861;SDS011;48953;53.110;5.592;2022-08-07T06:38:14;5.13;;;4.00;;
62861;SDS011;48953;53.110;5.592;2022-08-07T06:40:41;5.22;;;3.92;;
62861;SDS011;48953;53.110;5.592;2022-08-07T06:43:11;5.80;;;3.97;;
62861;SDS011;48953;53.110;5.592;2022-08-07T06:45:39;6.07;;;4.10;;
62861;SDS011;48953;53.110;5.592;2022-08-07T06:48:05;4.25;;;3.75;;
62861;SDS011;48953;53.110;5.592;2022-08-07T06:50:32;4.00;;;3.70;;
62861;SDS011;48953;53.110;5.592;2022-08-07T06:53:00;5.28;;;3.50;;
62861;SDS011;48953;53.110;5.592;2022-08-07T06:55:28;4.00;;;3.55;;
62861;SDS011;48953;53.110;5.592;2022-08-07T06:57:58;4.15;;;3.10;;
62861;SDS011;48953;53.110;5.592;2022-08-07T07:00:27;4.05;;;3.30;;
62861;SDS011;48953;53.110;5.592;2022-08-07T07:02:57;3.42;;;3.13;;
62861;SDS011;48953;53.110;5.592;2022-08-07T07:05:23;3.58;;;2.97;;
62861;SDS011;48953;53.110;5.592;2022-08-07T07:07:49;3.83;;;2.97;;
62861;SDS011;48953;53.110;5.592;2022-08-07T07:10:14;3.83;;;3.25;;
62861;SDS011;48953;53.110;5.592;2022-08-07T07:12:51;3.78;;;3.38;;
62861;SDS011;48953;53.110;5.592;2022-08-07T07:15:20;3.53;;;3.10;;
62861;SDS011;48953;53.110;5.592;2022-08-07T07:23:11;3.95;;;3.40;;
62861;SDS011;48953;53.110;5.592;2022-08-07T07:25:38;4.30;;;3.78;;
62861;SDS011;48953;53.110;5.592;2022-08-07T07:30:47;3.85;;;3.30;;
62861;SDS011;48953;53.110;5.592;2022-08-07T07:33:19;4.38;;;3.10;;
62861;SDS011;48953;53.110;5.592;2022-08-07T07:35:48;4.47;;;2.97;;
62861;SDS011;48953;53.110;5.592;2022-08-07T07:38:17;3.97;;;3.17;;
62861;SDS011;48953;53.110;5.592;2022-08-07T07:40:45;3.45;;;2.88;;
62861;SDS011;48953;53.110;5.592;2022-08-07T07:43:13;3.38;;;3.08;;
62861;SDS011;48953;53.110;5.592;2022-08-07T07:45:41;3.60;;;3.17;;
62861;SDS011;48953;53.110;5.592;2022-08-07T07:48:09;4.88;;;2.83;;
62861;SDS011;48953;53.110;5.592;2022-08-07T07:50:36;3.55;;;2.75;;
62861;SDS011;48953;53.110;5.592;2022-08-07T07:53:04;4.38;;;2.80;;
62861;SDS011;48953;53.110;5.592;2022-08-07T07:55:31;3.00;;;2.80;;
62861;SDS011;48953;53.110;5.592;2022-08-07T07:57:57;3.70;;;2.67;;
62861;SDS011;48953;53.110;5.592;2022-08-07T08:00:24;3.90;;;2.50;;
62861;SDS011;48953;53.110;5.592;2022-08-07T08:02:52;3.60;;;2.40;;
62861;SDS011;48953;53.110;5.592;2022-08-07T08:05:22;3.30;;;2.50;;
62861;SDS011;48953;53.110;5.592;2022-08-07T08:07:48;3.47;;;2.40;;
62861;SDS011;48953;53.110;5.592;2022-08-07T08:10:14;5.00;;;2.70;;
62861;SDS011;48953;53.110;5.592;2022-08-07T08:12:43;3.08;;;2.38;;
62861;SDS011;48953;53.110;5.592;2022-08-07T08:15:10;3.05;;;2.35;;
62861;SDS011;48953;53.110;5.592;2022-08-07T08:17:36;2.47;;;2.28;;
62861;SDS011;48953;53.110;5.592;2022-08-07T08:20:07;3.63;;;2.40;;
62861;SDS011;48953;53.110;5.592;2022-08-07T08:22:35;2.28;;;2.08;;
62861;SDS011;48953;53.110;5.592;2022-08-07T08:25:23;2.60;;;2.40;;
62861;SDS011;48953;53.110;5.592;2022-08-07T08:28:11;4.20;;;2.60;;
62861;SDS011;48953;53.110;5.592;2022-08-07T08:30:41;3.97;;;2.25;;
62861;SDS011;48953;53.110;5.592;2022-08-07T08:33:08;3.47;;;2.67;;
62861;SDS011;48953;53.110;5.592;2022-08-07T08:35:40;3.65;;;2.30;;
62861;SDS011;48953;53.110;5.592;2022-08-07T08:38:09;3.22;;;2.45;;
62861;SDS011;48953;53.110;5.592;2022-08-07T08:40:37;2.13;;;1.90;;
62861;SDS011;48953;53.110;5.592;2022-08-07T08:43:10;2.85;;;2.20;;
62861;SDS011;48953;53.110;5.592;2022-08-07T08:45:45;3.03;;;2.20;;
62861;SDS011;48953;53.110;5.592;2022-08-07T08:48:30;3.15;;;1.90;;
62861;SDS011;48953;53.110;5.592;2022-08-07T08:51:12;2.08;;;1.63;;
62861;SDS011;48953;53.110;5.592;2022-08-07T08:53:53;3.90;;;1.73;;
62861;SDS011;48953;53.110;5.592;2022-08-07T08:56:25;2.80;;;1.77;;
62861;SDS011;48953;53.110;5.592;2022-08-07T09:04:25;3.17;;;2.20;;
62861;SDS011;48953;53.110;5.592;2022-08-07T09:10:14;3.45;;;1.92;;
62861;SDS011;48953;53.110;5.592;2022-08-07T09:15:44;3.97;;;1.80;;
62861;SDS011;48953;53.110;5.592;2022-08-07T09:23:59;2.53;;;1.77;;
62861;SDS011;48953;53.110;5.592;2022-08-07T09:32:27;3.22;;;1.75;;
62861;SDS011;48953;53.110;5.592;2022-08-07T09:46:25;3.40;;;1.80;;
62861;SDS011;48953;53.110;5.592;2022-08-07T09:54:19;3.00;;;1.38;;
62861;SDS011;48953;53.110;5.592;2022-08-07T09:57:05;2.47;;;1.42;;
62861;SDS011;48953;53.110;5.592;2022-08-07T10:07:59;1.77;;;1.30;;
62861;SDS011;48953;53.110;5.592;2022-08-07T10:18:33;3.03;;;1.20;;
62861;SDS011;48953;53.110;5.592;2022-08-07T10:32:26;2.88;;;1.10;;
62861;SDS011;48953;53.110;5.592;2022-08-07T10:35:34;1.37;;;1.00;;
62861;SDS011;48953;53.110;5.592;2022-08-07T10:40:50;2.47;;;1.33;;
62861;SDS011;48953;53.110;5.592;2022-08-07T10:43:28;1.65;;;1.23;;
62861;SDS011;48953;53.110;5.592;2022-08-07T10:46:08;1.52;;;1.17;;
62861;SDS011;48953;53.110;5.592;2022-08-07T10:53:43;1.48;;;1.33;;
62861;SDS011;48953;53.110;5.592;2022-08-07T11:01:50;3.10;;;1.65;;
62861;SDS011;48953;53.110;5.592;2022-08-07T11:09:56;2.03;;;1.50;;
62861;SDS011;48953;53.110;5.592;2022-08-07T11:12:27;2.33;;;1.77;;
62861;SDS011;48953;53.110;5.592;2022-08-07T11:15:22;3.53;;;1.83;;
62861;SDS011;48953;53.110;5.592;2022-08-07T11:23:21;2.55;;;1.70;;
62861;SDS011;48953;53.110;5.592;2022-08-07T11:26:04;3.00;;;1.90;;
62861;SDS011;48953;53.110;5.592;2022-08-07T11:28:57;1.88;;;1.50;;
62861;SDS011;48953;53.110;5.592;2022-08-07T11:37:13;2.13;;;1.58;;
62861;SDS011;48953;53.110;5.592;2022-08-07T11:39:56;2.35;;;1.70;;
62861;SDS011;48953;53.110;5.592;2022-08-07T11:45:28;2.35;;;1.75;;
62861;SDS011;48953;53.110;5.592;2022-08-07T11:48:15;3.17;;;1.50;;
62861;SDS011;48953;53.110;5.592;2022-08-07T11:51:17;3.55;;;2.13;;
62861;SDS011;48953;53.110;5.592;2022-08-07T11:59:52;2.95;;;2.13;;
62861;SDS011;48953;53.110;5.592;2022-08-07T12:08:20;2.53;;;2.10;;
62861;SDS011;48953;53.110;5.592;2022-08-07T12:10:55;4.35;;;2.72;;
62861;SDS011;48953;53.110;5.592;2022-08-07T12:13:26;2.67;;;2.05;;
62861;SDS011;48953;53.110;5.592;2022-08-07T12:16:02;2.35;;;2.17;;
62861;SDS011;48953;53.110;5.592;2022-08-07T12:18:40;3.40;;;2.47;;
62861;SDS011;48953;53.110;5.592;2022-08-07T12:27:40;2.30;;;2.10;;
62861;SDS011;48953;53.110;5.592;2022-08-07T12:30:12;3.78;;;2.63;;
62861;SDS011;48953;53.110;5.592;2022-08-07T12:35:27;4.10;;;2.30;;
62861;SDS011;48953;53.110;5.592;2022-08-07T12:37:55;3.63;;;2.35;;
62861;SDS011;48953;53.110;5.592;2022-08-07T12:40:22;3.90;;;2.20;;
62861;SDS011;48953;53.110;5.592;2022-08-07T12:45:19;2.17;;;1.98;;
62861;SDS011;48953;53.110;5.592;2022-08-07T12:47:58;3.00;;;1.63;;
62861;SDS011;48953;53.110;5.592;2022-08-07T12:50:34;2.22;;;1.80;;
62861;SDS011;48953;53.110;5.592;2022-08-07T12:53:10;3.53;;;1.95;;
62861;SDS011;48953;53.110;5.592;2022-08-07T12:58:25;3.22;;;1.80;;
62861;SDS011;48953;53.110;5.592;2022-08-07T13:01:01;2.55;;;2.25;;
62861;SDS011;48953;53.110;5.592;2022-08-07T13:09:10;2.58;;;2.00;;
62861;SDS011;48953;53.110;5.592;2022-08-07T13:11:49;1.70;;;1.60;;
62861;SDS011;48953;53.110;5.592;2022-08-07T13:14:30;3.80;;;2.60;;
62861;SDS011;48953;53.110;5.592;2022-08-07T13:17:16;4.03;;;2.38;;
62861;SDS011;48953;53.110;5.592;2022-08-07T13:19:50;2.85;;;2.50;;
62861;SDS011;48953;53.110;5.592;2022-08-07T13:22:30;3.67;;;2.30;;
62861;SDS011;48953;53.110;5.592;2022-08-07T13:25:05;5.35;;;2.10;;
62861;SDS011;48953;53.110;5.592;2022-08-07T13:27:42;2.85;;;2.25;;
62861;SDS011;48953;53.110;5.592;2022-08-07T13:30:14;3.10;;;2.17;;
62861;SDS011;48953;53.110;5.592;2022-08-07T13:32:47;5.50;;;2.53;;
62861;SDS011;48953;53.110;5.592;2022-08-07T13:38:13;6.80;;;2.63;;
62861;SDS011;48953;53.110;5.592;2022-08-07T13:41:01;4.18;;;2.28;;
62861;SDS011;48953;53.110;5.592;2022-08-07T13:43:49;3.75;;;2.55;;
62861;SDS011;48953;53.110;5.592;2022-08-07T13:46:18;5.07;;;1.85;;
62861;SDS011;48953;53.110;5.592;2022-08-07T13:48:51;3.50;;;2.30;;
62861;SDS011;48953;53.110;5.592;2022-08-07T13:51:20;3.22;;;2.20;;
62861;SDS011;48953;53.110;5.592;2022-08-07T13:53:55;2.85;;;2.28;;
62861;SDS011;48953;53.110;5.592;2022-08-07T13:56:23;3.05;;;2.30;;
62861;SDS011;48953;53.110;5.592;2022-08-07T13:58:50;5.65;;;2.65;;
62861;SDS011;48953;53.110;5.592;2022-08-07T14:01:27;4.13;;;3.08;;
62861;SDS011;48953;53.110;5.592;2022-08-07T14:03:56;6.50;;;2.35;;
62861;SDS011;48953;53.110;5.592;2022-08-07T14:06:23;2.83;;;2.10;;
62861;SDS011;48953;53.110;5.592;2022-08-07T14:08:56;3.80;;;2.55;;
62861;SDS011;48953;53.110;5.592;2022-08-07T14:11:23;3.72;;;2.58;;
62861;SDS011;48953;53.110;5.592;2022-08-07T14:14:00;7.10;;;2.60;;
62861;SDS011;48953;53.110;5.592;2022-08-07T14:16:35;3.75;;;2.42;;
62861;SDS011;48953;53.110;5.592;2022-08-07T14:19:04;3.53;;;2.53;;
62861;SDS011;48953;53.110;5.592;2022-08-07T14:21:39;5.53;;;2.40;;
62861;SDS011;48953;53.110;5.592;2022-08-07T14:24:28;4.63;;;2.65;;
62861;SDS011;48953;53.110;5.592;2022-08-07T14:27:04;4.38;;;2.85;;
62861;SDS011;48953;53.110;5.592;2022-08-07T14:29:35;4.60;;;2.70;;
62861;SDS011;48953;53.110;5.592;2022-08-07T14:32:04;5.03;;;2.65;;
62861;SDS011;48953;53.110;5.592;2022-08-07T14:34:33;3.03;;;2.58;;
62861;SDS011;48953;53.110;5.592;2022-08-07T14:37:02;3.10;;;2.80;;
62861;SDS011;48953;53.110;5.592;2022-08-07T14:39:35;3.85;;;2.30;;
62861;SDS011;48953;53.110;5.592;2022-08-07T14:42:04;5.35;;;2.60;;
62861;SDS011;48953;53.110;5.592;2022-08-07T14:44:31;4.97;;;2.78;;
62861;SDS011;48953;53.110;5.592;2022-08-07T14:46:59;2.65;;;2.42;;
62861;SDS011;48953;53.110;5.592;2022-08-07T14:49:29;3.83;;;2.95;;
62861;SDS011;48953;53.110;5.592;2022-08-07T14:51:58;3.00;;;2.80;;
62861;SDS011;48953;53.110;5.592;2022-08-07T14:54:29;6.03;;;3.03;;
62861;SDS011;48953;53.110;5.592;2022-08-07T14:56:57;6.00;;;3.45;;
62861;SDS011;48953;53.110;5.592;2022-08-07T14:59:25;5.10;;;3.50;;
62861;SDS011;48953;53.110;5.592;2022-08-07T15:01:52;5.90;;;3.78;;
62861;SDS011;48953;53.110;5.592;2022-08-07T15:04:20;5.38;;;3.85;;
62861;SDS011;48953;53.110;5.592;2022-08-07T15:06:47;5.25;;;3.22;;
62861;SDS011;48953;53.110;5.592;2022-08-07T15:09:15;4.68;;;3.00;;
62861;SDS011;48953;53.110;5.592;2022-08-07T15:11:43;5.25;;;3.72;;
62861;SDS011;48953;53.110;5.592;2022-08-07T15:14:21;7.13;;;3.70;;
62861;SDS011;48953;53.110;5.592;2022-08-07T15:17:01;4.25;;;3.35;;
62861;SDS011;48953;53.110;5.592;2022-08-07T15:19:35;5.35;;;3.28;;
62861;SDS011;48953;53.110;5.592;2022-08-07T15:22:03;3.80;;;2.90;;
62861;SDS011;48953;53.110;5.592;2022-08-07T15:24:37;4.28;;;2.88;;
62861;SDS011;48953;53.110;5.592;2022-08-07T15:29:33;3.83;;;2.83;;
62861;SDS011;48953;53.110;5.592;2022-08-07T15:32:05;3.08;;;2.60;;
62861;SDS011;48953;53.110;5.592;2022-08-07T15:34:34;4.55;;;2.60;;
62861;SDS011;48953;53.110;5.592;2022-08-07T15:37:11;3.45;;;2.63;;
62861;SDS011;48953;53.110;5.592;2022-08-07T15:39:41;3.88;;;2.60;;
62861;SDS011;48953;53.110;5.592;2022-08-07T15:47:30;7.65;;;3.47;;
62861;SDS011;48953;53.110;5.592;2022-08-07T15:49:58;4.30;;;3.33;;
62861;SDS011;48953;53.110;5.592;2022-08-07T15:52:26;4.97;;;3.63;;
62861;SDS011;48953;53.110;5.592;2022-08-07T15:54:54;5.07;;;3.20;;
62861;SDS011;48953;53.110;5.592;2022-08-07T15:57:25;5.88;;;3.30;;
62861;SDS011;48953;53.110;5.592;2022-08-07T15:59:53;5.65;;;3.38;;
62861;SDS011;48953;53.110;5.592;2022-08-07T16:02:30;6.82;;;2.78;;
62861;SDS011;48953;53.110;5.592;2022-08-07T16:05:02;3.43;;;3.13;;
62861;SDS011;48953;53.110;5.592;2022-08-07T16:07:38;5.60;;;3.20;;
62861;SDS011;48953;53.110;5.592;2022-08-07T16:10:09;3.42;;;2.85;;
62861;SDS011;48953;53.110;5.592;2022-08-07T16:12:41;4.43;;;2.28;;
62861;SDS011;48953;53.110;5.592;2022-08-07T16:20:58;4.57;;;2.60;;
62861;SDS011;48953;53.110;5.592;2022-08-07T16:29:06;4.22;;;2.17;;
62861;SDS011;48953;53.110;5.592;2022-08-07T16:31:51;4.25;;;2.40;;
62861;SDS011;48953;53.110;5.592;2022-08-07T16:37:59;5.28;;;2.25;;
62861;SDS011;48953;53.110;5.592;2022-08-07T16:45:51;3.72;;;2.38;;
62861;SDS011;48953;53.110;5.592;2022-08-07T16:51:38;3.17;;;2.13;;
62861;SDS011;48953;53.110;5.592;2022-08-07T17:08:01;2.95;;;1.73;;
62861;SDS011;48953;53.110;5.592;2022-08-07T17:10:35;5.53;;;2.35;;
62861;SDS011;48953;53.110;5.592;2022-08-07T17:15:46;2.22;;;1.70;;
62861;SDS011;48953;53.110;5.592;2022-08-07T17:20:56;3.65;;;1.27;;
62861;SDS011;48953;53.110;5.592;2022-08-07T17:29:13;5.53;;;1.88;;
62861;SDS011;48953;53.110;5.592;2022-08-07T17:31:47;3.40;;;1.50;;
62861;SDS011;48953;53.110;5.592;2022-08-07T17:36:53;2.33;;;1.77;;
62861;SDS011;48953;53.110;5.592;2022-08-07T17:45:38;2.30;;;1.38;;
62861;SDS011;48953;53.110;5.592;2022-08-07T17:48:10;2.70;;;1.30;;
62861;SDS011;48953;53.110;5.592;2022-08-07T17:50:55;5.45;;;1.50;;
62861;SDS011;48953;53.110;5.592;2022-08-07T17:53:48;3.60;;;1.40;;
62861;SDS011;48953;53.110;5.592;2022-08-07T17:56:30;1.85;;;1.20;;
62861;SDS011;48953;53.110;5.592;2022-08-07T18:01:41;1.88;;;1.33;;
62861;SDS011;48953;53.110;5.592;2022-08-07T18:09:29;1.92;;;1.38;;
62861;SDS011;48953;53.110;5.592;2022-08-07T18:12:18;2.53;;;1.48;;
62861;SDS011;48953;53.110;5.592;2022-08-07T18:14:53;2.47;;;1.25;;
62861;SDS011;48953;53.110;5.592;2022-08-07T18:17:47;2.10;;;1.30;;
62861;SDS011;48953;53.110;5.592;2022-08-07T18:20:51;2.67;;;1.90;;
62861;SDS011;48953;53.110;5.592;2022-08-07T18:23:13;2.60;;;1.45;;
62861;SDS011;48953;53.110;5.592;2022-08-07T18:25:49;3.67;;;1.67;;
62861;SDS011;48953;53.110;5.592;2022-08-07T18:28:33;1.40;;;1.30;;
62861;SDS011;48953;53.110;5.592;2022-08-07T18:37:34;3.28;;;1.30;;
62861;SDS011;48953;53.110;5.592;2022-08-07T18:43:08;2.58;;;1.55;;
62861;SDS011;48953;53.110;5.592;2022-08-07T18:46:03;3.22;;;1.38;;
62861;SDS011;48953;53.110;5.592;2022-08-07T18:48:50;2.25;;;1.50;;
62861;SDS011;48953;53.110;5.592;2022-08-07T18:51:26;1.83;;;1.30;;
62861;SDS011;48953;53.110;5.592;2022-08-07T18:54:02;3.92;;;1.35;;
62861;SDS011;48953;53.110;5.592;2022-08-07T18:56:48;4.18;;;1.60;;
62861;SDS011;48953;53.110;5.592;2022-08-07T19:02:24;2.80;;;1.50;;
62861;SDS011;48953;53.110;5.592;2022-08-07T19:10:27;3.42;;;1.42;;